sensor_id;sensor_type;location;lat;lon;timestamp;temperature;humidity
16347;DHT22;8283;48.504;13.734;2023-08-12T00:02:17;19.00;71.10
16347;DHT22;8283;48.504;13.734;2023-08-12T00:05:02;19.00;70.60
16347;DHT22;8283;48.504;13.734;2023-08-12T00:07:48;19.00;70.80
16347;DHT22;8283;48.504;13.734;2023-08-12T00:10:32;19.00;70.90
16347;DHT22;8283;48.504;13.734;2023-08-12T00:13:17;18.90;70.90
16347;DHT22;8283;48.504;13.734;2023-08-12T00:16:01;18.90;71.00
16347;DHT22;8283;48.504;13.734;2023-08-12T00:18:45;18.90;71.10
16347;DHT22;8283;48.504;13.734;2023-08-12T00:21:29;18.90;71.20
16347;DHT22;8283;48.504;13.734;2023-08-12T00:24:14;18.80;71.20
16347;DHT22;8283;48.504;13.734;2023-08-12T00:26:58;18.80;71.30
16347;DHT22;8283;48.504;13.734;2023-08-12T00:29:42;18.80;71.50
16347;DHT22;8283;48.504;13.734;2023-08-12T00:32:27;18.70;71.60
16347;DHT22;8283;48.504;13.734;2023-08-12T00:35:11;18.70;71.80
16347;DHT22;8283;48.504;13.734;2023-08-12T00:37:55;18.60;71.90
16347;DHT22;8283;48.504;13.734;2023-08-12T00:40:40;18.60;72.30
16347;DHT22;8283;48.504;13.734;2023-08-12T00:43:24;18.60;72.40
16347;DHT22;8283;48.504;13.734;2023-08-12T00:46:10;18.60;72.50
16347;DHT22;8283;48.504;13.734;2023-08-12T00:48:54;18.60;72.50
16347;DHT22;8283;48.504;13.734;2023-08-12T00:51:41;18.60;72.70
16347;DHT22;8283;48.504;13.734;2023-08-12T00:54:26;18.60;73.60
16347;DHT22;8283;48.504;13.734;2023-08-12T00:57:11;18.50;73.00
16347;DHT22;8283;48.504;13.734;2023-08-12T00:59:56;18.50;73.10
16347;DHT22;8283;48.504;13.734;2023-08-12T01:02:44;18.50;73.40
16347;DHT22;8283;48.504;13.734;2023-08-12T01:05:31;18.50;74.10
16347;DHT22;8283;48.504;13.734;2023-08-12T01:08:17;18.40;73.40
16347;DHT22;8283;48.504;13.734;2023-08-12T01:17:34;18.40;76.50
16347;DHT22;8283;48.504;13.734;2023-08-12T01:20:22;18.30;74.40
16347;DHT22;8283;48.504;13.734;2023-08-12T01:23:15;18.30;75.00
16347;DHT22;8283;48.504;13.734;2023-08-12T01:25:59;18.30;73.90
16347;DHT22;8283;48.504;13.734;2023-08-12T01:28:44;18.30;74.10
16347;DHT22;8283;48.504;13.734;2023-08-12T01:31:34;18.30;74.20
16347;DHT22;8283;48.504;13.734;2023-08-12T01:34:28;18.30;75.40
16347;DHT22;8283;48.504;13.734;2023-08-12T01:37:21;18.30;75.20
16347;DHT22;8283;48.504;13.734;2023-08-12T01:40:07;18.30;75.20
16347;DHT22;8283;48.504;13.734;2023-08-12T01:42:53;18.30;76.80
16347;DHT22;8283;48.504;13.734;2023-08-12T01:45:38;18.20;74.00
16347;DHT22;8283;48.504;13.734;2023-08-12T01:48:23;18.20;74.30
16347;DHT22;8283;48.504;13.734;2023-08-12T01:51:07;18.20;74.50
16347;DHT22;8283;48.504;13.734;2023-08-12T01:53:52;18.10;74.60
16347;DHT22;8283;48.504;13.734;2023-08-12T01:56:36;18.10;74.70
16347;DHT22;8283;48.504;13.734;2023-08-12T01:59:20;18.10;74.80
16347;DHT22;8283;48.504;13.734;2023-08-12T02:02:04;18.00;74.90
16347;DHT22;8283;48.504;13.734;2023-08-12T02:04:50;18.00;75.20
16347;DHT22;8283;48.504;13.734;2023-08-12T02:07:34;18.00;75.30
16347;DHT22;8283;48.504;13.734;2023-08-12T02:10:19;17.90;75.30
16347;DHT22;8283;48.504;13.734;2023-08-12T02:13:03;17.90;75.50
16347;DHT22;8283;48.504;13.734;2023-08-12T02:15:47;17.90;75.70
16347;DHT22;8283;48.504;13.734;2023-08-12T02:18:32;17.90;75.90
16347;DHT22;8283;48.504;13.734;2023-08-12T02:21:16;17.80;75.80
16347;DHT22;8283;48.504;13.734;2023-08-12T02:24:00;17.80;75.90
16347;DHT22;8283;48.504;13.734;2023-08-12T02:26:45;17.80;75.90
16347;DHT22;8283;48.504;13.734;2023-08-12T02:29:28;17.80;76.00
16347;DHT22;8283;48.504;13.734;2023-08-12T02:32:13;17.80;76.10
16347;DHT22;8283;48.504;13.734;2023-08-12T02:34:58;17.80;76.30
16347;DHT22;8283;48.504;13.734;2023-08-12T02:37:42;17.70;76.30
16347;DHT22;8283;48.504;13.734;2023-08-12T02:40:26;17.70;77.10
16347;DHT22;8283;48.504;13.734;2023-08-12T02:43:10;17.70;76.50
16347;DHT22;8283;48.504;13.734;2023-08-12T02:45:57;17.60;76.70
16347;DHT22;8283;48.504;13.734;2023-08-12T02:48:42;17.60;76.80
16347;DHT22;8283;48.504;13.734;2023-08-12T02:51:27;17.50;77.30
16347;DHT22;8283;48.504;13.734;2023-08-12T02:54:11;17.50;77.10
16347;DHT22;8283;48.504;13.734;2023-08-12T02:56:55;17.50;77.30
16347;DHT22;8283;48.504;13.734;2023-08-12T02:59:39;17.40;77.50
16347;DHT22;8283;48.504;13.734;2023-08-12T03:02:24;17.40;77.50
16347;DHT22;8283;48.504;13.734;2023-08-12T03:05:08;17.40;77.70
16347;DHT22;8283;48.504;13.734;2023-08-12T03:07:53;17.30;77.80
16347;DHT22;8283;48.504;13.734;2023-08-12T03:10:38;17.30;78.00
16347;DHT22;8283;48.504;13.734;2023-08-12T03:13:23;17.30;78.10
16347;DHT22;8283;48.504;13.734;2023-08-12T03:16:12;17.30;78.10
16347;DHT22;8283;48.504;13.734;2023-08-12T03:18:58;17.30;79.40
16347;DHT22;8283;48.504;13.734;2023-08-12T03:21:42;17.30;78.30
16347;DHT22;8283;48.504;13.734;2023-08-12T03:24:27;17.30;78.30
16347;DHT22;8283;48.504;13.734;2023-08-12T03:27:11;17.30;78.40
16347;DHT22;8283;48.504;13.734;2023-08-12T03:29:55;17.20;78.30
16347;DHT22;8283;48.504;13.734;2023-08-12T03:32:40;17.20;78.40
16347;DHT22;8283;48.504;13.734;2023-08-12T03:35:25;17.20;78.60
16347;DHT22;8283;48.504;13.734;2023-08-12T03:38:09;17.20;78.70
16347;DHT22;8283;48.504;13.734;2023-08-12T03:40:54;17.20;78.80
16347;DHT22;8283;48.504;13.734;2023-08-12T03:43:38;17.20;79.60
16347;DHT22;8283;48.504;13.734;2023-08-12T03:46:23;17.20;79.00
16347;DHT22;8283;48.504;13.734;2023-08-12T03:49:08;17.10;79.10
16347;DHT22;8283;48.504;13.734;2023-08-12T03:51:53;17.10;79.30
16347;DHT22;8283;48.504;13.734;2023-08-12T03:54:38;17.10;79.40
16347;DHT22;8283;48.504;13.734;2023-08-12T03:57:23;17.10;79.50
16347;DHT22;8283;48.504;13.734;2023-08-12T04:00:09;17.00;79.50
16347;DHT22;8283;48.504;13.734;2023-08-12T04:02:59;17.00;79.80
16347;DHT22;8283;48.504;13.734;2023-08-12T04:05:51;17.00;79.90
16347;DHT22;8283;48.504;13.734;2023-08-12T04:08:37;17.00;82.10
16347;DHT22;8283;48.504;13.734;2023-08-12T04:11:22;16.90;80.10
16347;DHT22;8283;48.504;13.734;2023-08-12T04:14:07;17.00;80.30
16347;DHT22;8283;48.504;13.734;2023-08-12T04:16:52;16.90;80.50
16347;DHT22;8283;48.504;13.734;2023-08-12T04:19:37;16.90;80.70
16347;DHT22;8283;48.504;13.734;2023-08-12T04:22:22;16.90;80.80
16347;DHT22;8283;48.504;13.734;2023-08-12T04:25:08;16.90;81.00
16347;DHT22;8283;48.504;13.734;2023-08-12T04:27:53;16.90;80.90
16347;DHT22;8283;48.504;13.734;2023-08-12T04:30:47;16.90;81.10
16347;DHT22;8283;48.504;13.734;2023-08-12T04:33:34;16.90;82.70
16347;DHT22;8283;48.504;13.734;2023-08-12T04:36:18;16.90;81.50
16347;DHT22;8283;48.504;13.734;2023-08-12T04:39:04;16.90;81.50
16347;DHT22;8283;48.504;13.734;2023-08-12T04:41:49;16.90;81.60
16347;DHT22;8283;48.504;13.734;2023-08-12T04:44:33;16.90;81.70
16347;DHT22;8283;48.504;13.734;2023-08-12T04:47:19;16.90;81.90
16347;DHT22;8283;48.504;13.734;2023-08-12T04:50:04;16.90;82.00
16347;DHT22;8283;48.504;13.734;2023-08-12T04:52:49;16.90;82.10
16347;DHT22;8283;48.504;13.734;2023-08-12T04:55:35;16.90;82.10
16347;DHT22;8283;48.504;13.734;2023-08-12T04:58:20;16.90;82.20
16347;DHT22;8283;48.504;13.734;2023-08-12T05:01:08;16.90;82.30
16347;DHT22;8283;48.504;13.734;2023-08-12T05:03:52;16.90;82.80
16347;DHT22;8283;48.504;13.734;2023-08-12T05:06:37;16.90;82.40
16347;DHT22;8283;48.504;13.734;2023-08-12T05:09:21;16.90;82.60
16347;DHT22;8283;48.504;13.734;2023-08-12T05:12:06;16.90;82.70
16347;DHT22;8283;48.504;13.734;2023-08-12T05:14:51;16.90;82.90
16347;DHT22;8283;48.504;13.734;2023-08-12T05:18:01;16.90;83.10
16347;DHT22;8283;48.504;13.734;2023-08-12T05:20:45;16.90;83.10
16347;DHT22;8283;48.504;13.734;2023-08-12T05:23:30;16.90;83.30
16347;DHT22;8283;48.504;13.734;2023-08-12T05:26:14;16.90;83.10
16347;DHT22;8283;48.504;13.734;2023-08-12T05:28:58;16.90;83.20
16347;DHT22;8283;48.504;13.734;2023-08-12T05:31:42;16.90;83.20
16347;DHT22;8283;48.504;13.734;2023-08-12T05:34:27;16.90;83.20
16347;DHT22;8283;48.504;13.734;2023-08-12T05:37:11;16.90;83.50
16347;DHT22;8283;48.504;13.734;2023-08-12T05:39:55;16.90;83.60
16347;DHT22;8283;48.504;13.734;2023-08-12T05:42:39;16.90;83.70
16347;DHT22;8283;48.504;13.734;2023-08-12T05:45:26;16.90;83.90
16347;DHT22;8283;48.504;13.734;2023-08-12T05:48:11;17.00;84.90
16347;DHT22;8283;48.504;13.734;2023-08-12T05:50:55;17.00;84.10
16347;DHT22;8283;48.504;13.734;2023-08-12T05:53:40;17.00;84.20
16347;DHT22;8283;48.504;13.734;2023-08-12T05:56:24;17.00;84.30
16347;DHT22;8283;48.504;13.734;2023-08-12T05:59:08;17.00;84.20
16347;DHT22;8283;48.504;13.734;2023-08-12T06:01:53;17.10;84.70
16347;DHT22;8283;48.504;13.734;2023-08-12T06:04:38;17.10;85.70
16347;DHT22;8283;48.504;13.734;2023-08-12T06:07:22;17.30;86.30
16347;DHT22;8283;48.504;13.734;2023-08-12T06:10:07;17.40;87.20
16347;DHT22;8283;48.504;13.734;2023-08-12T06:12:52;17.60;87.90
16347;DHT22;8283;48.504;13.734;2023-08-12T06:15:36;17.80;88.00
16347;DHT22;8283;48.504;13.734;2023-08-12T06:18:21;18.10;88.00
16347;DHT22;8283;48.504;13.734;2023-08-12T06:21:05;18.30;88.00
16347;DHT22;8283;48.504;13.734;2023-08-12T06:23:49;18.50;88.00
16347;DHT22;8283;48.504;13.734;2023-08-12T06:26:34;18.70;88.00
16347;DHT22;8283;48.504;13.734;2023-08-12T06:29:18;19.00;88.20
16347;DHT22;8283;48.504;13.734;2023-08-12T06:32:02;19.10;88.10
16347;DHT22;8283;48.504;13.734;2023-08-12T06:34:46;19.50;88.00
16347;DHT22;8283;48.504;13.734;2023-08-12T06:37:31;19.70;88.20
16347;DHT22;8283;48.504;13.734;2023-08-12T06:40:16;19.90;87.20
16347;DHT22;8283;48.504;13.734;2023-08-12T06:43:00;20.20;87.10
16347;DHT22;8283;48.504;13.734;2023-08-12T06:45:45;20.40;86.90
16347;DHT22;8283;48.504;13.734;2023-08-12T06:48:29;20.60;86.60
16347;DHT22;8283;48.504;13.734;2023-08-12T06:51:13;20.90;86.10
16347;DHT22;8283;48.504;13.734;2023-08-12T06:53:58;21.10;85.80
16347;DHT22;8283;48.504;13.734;2023-08-12T06:56:42;21.30;85.60
16347;DHT22;8283;48.504;13.734;2023-08-12T06:59:26;21.50;85.40
16347;DHT22;8283;48.504;13.734;2023-08-12T07:02:11;21.70;85.00
16347;DHT22;8283;48.504;13.734;2023-08-12T07:04:55;21.90;84.60
16347;DHT22;8283;48.504;13.734;2023-08-12T07:07:40;22.20;84.40
16347;DHT22;8283;48.504;13.734;2023-08-12T07:10:24;22.40;84.00
16347;DHT22;8283;48.504;13.734;2023-08-12T07:13:09;22.60;83.60
16347;DHT22;8283;48.504;13.734;2023-08-12T07:15:53;22.80;83.20
16347;DHT22;8283;48.504;13.734;2023-08-12T07:18:37;23.00;83.00
16347;DHT22;8283;48.504;13.734;2023-08-12T07:21:21;23.20;82.70
16347;DHT22;8283;48.504;13.734;2023-08-12T07:24:06;23.40;82.50
16347;DHT22;8283;48.504;13.734;2023-08-12T07:26:50;23.60;82.10
16347;DHT22;8283;48.504;13.734;2023-08-12T07:29:35;23.80;81.80
16347;DHT22;8283;48.504;13.734;2023-08-12T07:32:19;24.00;81.70
16347;DHT22;8283;48.504;13.734;2023-08-12T07:35:04;24.30;81.40
16347;DHT22;8283;48.504;13.734;2023-08-12T07:37:50;24.50;80.60
16347;DHT22;8283;48.504;13.734;2023-08-12T07:40:34;24.70;80.40
16347;DHT22;8283;48.504;13.734;2023-08-12T07:43:18;24.90;80.40
16347;DHT22;8283;48.504;13.734;2023-08-12T07:46:02;25.20;80.30
16347;DHT22;8283;48.504;13.734;2023-08-12T07:48:49;25.40;79.80
16347;DHT22;8283;48.504;13.734;2023-08-12T07:51:33;25.70;79.70
16347;DHT22;8283;48.504;13.734;2023-08-12T07:54:17;25.90;79.40
16347;DHT22;8283;48.504;13.734;2023-08-12T07:57:01;26.20;79.30
16347;DHT22;8283;48.504;13.734;2023-08-12T07:59:47;26.40;78.60
16347;DHT22;8283;48.504;13.734;2023-08-12T08:02:31;26.60;78.10
16347;DHT22;8283;48.504;13.734;2023-08-12T08:05:16;26.90;77.70
16347;DHT22;8283;48.504;13.734;2023-08-12T08:08:00;27.10;76.80
16347;DHT22;8283;48.504;13.734;2023-08-12T08:10:44;27.40;76.60
16347;DHT22;8283;48.504;13.734;2023-08-12T08:13:29;27.60;76.60
16347;DHT22;8283;48.504;13.734;2023-08-12T08:16:14;27.90;76.00
16347;DHT22;8283;48.504;13.734;2023-08-12T08:18:58;28.20;75.80
16347;DHT22;8283;48.504;13.734;2023-08-12T08:21:42;28.50;75.60
16347;DHT22;8283;48.504;13.734;2023-08-12T08:24:27;28.70;74.90
16347;DHT22;8283;48.504;13.734;2023-08-12T08:27:11;29.00;74.40
16347;DHT22;8283;48.504;13.734;2023-08-12T08:29:57;29.20;73.50
16347;DHT22;8283;48.504;13.734;2023-08-12T08:32:42;29.50;72.40
16347;DHT22;8283;48.504;13.734;2023-08-12T08:35:26;29.70;71.70
16347;DHT22;8283;48.504;13.734;2023-08-12T08:38:11;30.00;71.60
16347;DHT22;8283;48.504;13.734;2023-08-12T08:40:57;30.20;71.20
16347;DHT22;8283;48.504;13.734;2023-08-12T08:43:43;30.50;69.80
16347;DHT22;8283;48.504;13.734;2023-08-12T08:46:30;30.70;69.90
16347;DHT22;8283;48.504;13.734;2023-08-12T08:49:15;31.00;69.10
16347;DHT22;8283;48.504;13.734;2023-08-12T08:52:00;31.30;68.90
16347;DHT22;8283;48.504;13.734;2023-08-12T08:54:45;31.50;68.00
16347;DHT22;8283;48.504;13.734;2023-08-12T08:57:30;31.60;66.90
16347;DHT22;8283;48.504;13.734;2023-08-12T09:00:16;31.90;66.70
16347;DHT22;8283;48.504;13.734;2023-08-12T09:03:01;32.00;64.20
16347;DHT22;8283;48.504;13.734;2023-08-12T09:05:45;32.30;64.90
16347;DHT22;8283;48.504;13.734;2023-08-12T09:08:32;32.40;64.20
16347;DHT22;8283;48.504;13.734;2023-08-12T09:11:17;32.50;62.80
16347;DHT22;8283;48.504;13.734;2023-08-12T09:14:02;32.70;63.00
16347;DHT22;8283;48.504;13.734;2023-08-12T09:16:46;32.80;62.60
16347;DHT22;8283;48.504;13.734;2023-08-12T09:19:31;32.90;62.10
16347;DHT22;8283;48.504;13.734;2023-08-12T09:22:16;33.10;61.60
16347;DHT22;8283;48.504;13.734;2023-08-12T09:25:02;33.20;61.00
16347;DHT22;8283;48.504;13.734;2023-08-12T09:27:54;33.30;60.40
16347;DHT22;8283;48.504;13.734;2023-08-12T09:30:39;33.40;59.30
16347;DHT22;8283;48.504;13.734;2023-08-12T09:33:25;33.50;59.70
16347;DHT22;8283;48.504;13.734;2023-08-12T09:36:12;33.60;58.50
16347;DHT22;8283;48.504;13.734;2023-08-12T09:38:57;33.70;58.00
16347;DHT22;8283;48.504;13.734;2023-08-12T09:41:43;33.80;57.70
16347;DHT22;8283;48.504;13.734;2023-08-12T09:44:27;34.00;57.10
16347;DHT22;8283;48.504;13.734;2023-08-12T09:47:11;34.10;57.30
16347;DHT22;8283;48.504;13.734;2023-08-12T09:49:57;34.20;56.50
16347;DHT22;8283;48.504;13.734;2023-08-12T09:52:42;34.30;56.40
16347;DHT22;8283;48.504;13.734;2023-08-12T09:55:27;34.40;56.40
16347;DHT22;8283;48.504;13.734;2023-08-12T09:58:40;34.50;56.30
16347;DHT22;8283;48.504;13.734;2023-08-12T10:01:29;34.50;53.70
16347;DHT22;8283;48.504;13.734;2023-08-12T10:04:41;34.70;55.80
16347;DHT22;8283;48.504;13.734;2023-08-12T10:07:54;34.80;54.30
16347;DHT22;8283;48.504;13.734;2023-08-12T10:10:39;34.90;55.70
16347;DHT22;8283;48.504;13.734;2023-08-12T10:13:31;34.90;55.10
16347;DHT22;8283;48.504;13.734;2023-08-12T10:16:29;35.00;54.90
16347;DHT22;8283;48.504;13.734;2023-08-12T10:19:27;35.10;53.90
16347;DHT22;8283;48.504;13.734;2023-08-12T10:22:29;35.10;53.80
16347;DHT22;8283;48.504;13.734;2023-08-12T10:25:25;35.20;53.60
16347;DHT22;8283;48.504;13.734;2023-08-12T10:28:14;35.30;53.60
16347;DHT22;8283;48.504;13.734;2023-08-12T10:31:07;35.30;53.50
16347;DHT22;8283;48.504;13.734;2023-08-12T10:34:21;35.40;53.50
16347;DHT22;8283;48.504;13.734;2023-08-12T10:37:26;35.50;51.60
16347;DHT22;8283;48.504;13.734;2023-08-12T10:40:26;35.50;52.90
16347;DHT22;8283;48.504;13.734;2023-08-12T10:43:14;35.50;52.30
16347;DHT22;8283;48.504;13.734;2023-08-12T10:46:36;35.60;51.80
16347;DHT22;8283;48.504;13.734;2023-08-12T10:49:48;35.60;50.60
16347;DHT22;8283;48.504;13.734;2023-08-12T10:52:43;35.60;50.40
16347;DHT22;8283;48.504;13.734;2023-08-12T10:55:50;35.70;51.70
16347;DHT22;8283;48.504;13.734;2023-08-12T10:58:56;35.70;51.50
16347;DHT22;8283;48.504;13.734;2023-08-12T11:01:41;35.80;51.40
16347;DHT22;8283;48.504;13.734;2023-08-12T11:04:42;35.80;51.90
16347;DHT22;8283;48.504;13.734;2023-08-12T11:07:59;35.80;51.10
16347;DHT22;8283;48.504;13.734;2023-08-12T11:11:27;36.00;49.70
16347;DHT22;8283;48.504;13.734;2023-08-12T11:14:26;36.00;49.60
16347;DHT22;8283;48.504;13.734;2023-08-12T11:17:36;36.10;50.90
16347;DHT22;8283;48.504;13.734;2023-08-12T11:20:41;36.20;49.30
16347;DHT22;8283;48.504;13.734;2023-08-12T11:23:45;36.30;50.60
16347;DHT22;8283;48.504;13.734;2023-08-12T11:26:50;36.30;50.10
16347;DHT22;8283;48.504;13.734;2023-08-12T11:29:44;36.40;49.80
16347;DHT22;8283;48.504;13.734;2023-08-12T11:32:51;36.40;49.40
16347;DHT22;8283;48.504;13.734;2023-08-12T11:35:50;36.40;49.20
16347;DHT22;8283;48.504;13.734;2023-08-12T11:38:42;36.40;49.00
16347;DHT22;8283;48.504;13.734;2023-08-12T11:42:12;36.40;48.80
16347;DHT22;8283;48.504;13.734;2023-08-12T11:45:42;36.40;49.00
16347;DHT22;8283;48.504;13.734;2023-08-12T11:48:46;36.50;49.00
16347;DHT22;8283;48.504;13.734;2023-08-12T11:51:47;36.50;49.10
16347;DHT22;8283;48.504;13.734;2023-08-12T11:54:50;36.60;48.90
16347;DHT22;8283;48.504;13.734;2023-08-12T11:57:45;36.70;49.10
16347;DHT22;8283;48.504;13.734;2023-08-12T12:00:42;36.80;49.00
16347;DHT22;8283;48.504;13.734;2023-08-12T12:03:43;36.90;48.70
16347;DHT22;8283;48.504;13.734;2023-08-12T12:06:41;37.10;48.50
16347;DHT22;8283;48.504;13.734;2023-08-12T12:09:46;37.20;48.50
16347;DHT22;8283;48.504;13.734;2023-08-12T12:12:38;37.30;48.30
16347;DHT22;8283;48.504;13.734;2023-08-12T12:15:42;37.40;47.80
16347;DHT22;8283;48.504;13.734;2023-08-12T12:18:47;37.60;47.80
16347;DHT22;8283;48.504;13.734;2023-08-12T12:21:40;37.60;47.70
16347;DHT22;8283;48.504;13.734;2023-08-12T12:24:46;37.70;46.50
16347;DHT22;8283;48.504;13.734;2023-08-12T12:28:17;37.80;47.40
16347;DHT22;8283;48.504;13.734;2023-08-12T12:31:01;38.00;47.50
16347;DHT22;8283;48.504;13.734;2023-08-12T12:34:06;38.00;47.20
16347;DHT22;8283;48.504;13.734;2023-08-12T12:36:51;38.20;46.90
16347;DHT22;8283;48.504;13.734;2023-08-12T12:39:56;38.20;46.60
16347;DHT22;8283;48.504;13.734;2023-08-12T12:42:53;38.30;46.70
16347;DHT22;8283;48.504;13.734;2023-08-12T12:45:57;38.40;46.50
16347;DHT22;8283;48.504;13.734;2023-08-12T12:49:01;38.50;46.20
16347;DHT22;8283;48.504;13.734;2023-08-12T12:52:14;38.60;46.00
16347;DHT22;8283;48.504;13.734;2023-08-12T12:55:18;38.70;46.00
16347;DHT22;8283;48.504;13.734;2023-08-12T12:58:23;38.80;45.90
16347;DHT22;8283;48.504;13.734;2023-08-12T13:01:15;38.80;45.70
16347;DHT22;8283;48.504;13.734;2023-08-12T13:04:20;38.90;45.60
16347;DHT22;8283;48.504;13.734;2023-08-12T13:07:24;39.00;45.50
16347;DHT22;8283;48.504;13.734;2023-08-12T13:10:21;39.10;45.30
16347;DHT22;8283;48.504;13.734;2023-08-12T13:13:15;39.20;45.20
16347;DHT22;8283;48.504;13.734;2023-08-12T13:16:00;39.30;45.50
16347;DHT22;8283;48.504;13.734;2023-08-12T13:19:30;39.40;45.50
16347;DHT22;8283;48.504;13.734;2023-08-12T13:22:59;39.50;45.30
16347;DHT22;8283;48.504;13.734;2023-08-12T13:25:44;39.60;45.30
16347;DHT22;8283;48.504;13.734;2023-08-12T13:28:50;39.70;45.20
16347;DHT22;8283;48.504;13.734;2023-08-12T13:31:54;39.70;45.00
16347;DHT22;8283;48.504;13.734;2023-08-12T13:34:58;39.70;44.80
16347;DHT22;8283;48.504;13.734;2023-08-12T13:38:03;39.70;44.50
16347;DHT22;8283;48.504;13.734;2023-08-12T13:41:03;39.80;44.40
16347;DHT22;8283;48.504;13.734;2023-08-12T13:44:07;39.80;44.40
16347;DHT22;8283;48.504;13.734;2023-08-12T13:47:12;39.80;44.50
16347;DHT22;8283;48.504;13.734;2023-08-12T13:50:16;39.80;44.50
16347;DHT22;8283;48.504;13.734;2023-08-12T13:53:19;39.70;44.50
16347;DHT22;8283;48.504;13.734;2023-08-12T13:56:11;39.80;44.80
16347;DHT22;8283;48.504;13.734;2023-08-12T13:59:04;39.80;44.50
16347;DHT22;8283;48.504;13.734;2023-08-12T14:02:01;39.80;44.50
16347;DHT22;8283;48.504;13.734;2023-08-12T14:04:56;39.90;44.80
16347;DHT22;8283;48.504;13.734;2023-08-12T14:07:46;39.90;44.60
16347;DHT22;8283;48.504;13.734;2023-08-12T14:10:50;39.80;45.00
16347;DHT22;8283;48.504;13.734;2023-08-12T14:13:37;39.60;44.00
16347;DHT22;8283;48.504;13.734;2023-08-12T14:16:31;39.30;43.90
16347;DHT22;8283;48.504;13.734;2023-08-12T14:19:26;39.00;44.30
16347;DHT22;8283;48.504;13.734;2023-08-12T14:22:21;38.70;44.70
16347;DHT22;8283;48.504;13.734;2023-08-12T14:25:25;38.50;45.30
16347;DHT22;8283;48.504;13.734;2023-08-12T14:28:16;38.40;45.90
16347;DHT22;8283;48.504;13.734;2023-08-12T14:31:10;38.50;45.60
16347;DHT22;8283;48.504;13.734;2023-08-12T14:34:08;38.60;45.40
16347;DHT22;8283;48.504;13.734;2023-08-12T14:37:06;38.80;45.40
16347;DHT22;8283;48.504;13.734;2023-08-12T14:40:12;39.00;45.40
16347;DHT22;8283;48.504;13.734;2023-08-12T14:43:00;39.20;45.50
16347;DHT22;8283;48.504;13.734;2023-08-12T14:46:04;39.40;45.30
16347;DHT22;8283;48.504;13.734;2023-08-12T14:49:08;39.60;45.50
16347;DHT22;8283;48.504;13.734;2023-08-12T14:52:01;39.70;45.40
16347;DHT22;8283;48.504;13.734;2023-08-12T14:55:06;39.80;45.00
16347;DHT22;8283;48.504;13.734;2023-08-12T14:58:10;39.80;44.90
16347;DHT22;8283;48.504;13.734;2023-08-12T15:00:55;39.80;44.90
16347;DHT22;8283;48.504;13.734;2023-08-12T15:04:01;39.80;44.70
16347;DHT22;8283;48.504;13.734;2023-08-12T15:06:48;39.70;44.50
16347;DHT22;8283;48.504;13.734;2023-08-12T15:09:52;39.70;44.40
16347;DHT22;8283;48.504;13.734;2023-08-12T15:12:59;39.60;44.50
16347;DHT22;8283;48.504;13.734;2023-08-12T15:15:49;39.40;44.50
16347;DHT22;8283;48.504;13.734;2023-08-12T15:18:47;39.20;44.20
16347;DHT22;8283;48.504;13.734;2023-08-12T15:21:41;38.90;44.40
16347;DHT22;8283;48.504;13.734;2023-08-12T15:25:00;38.70;44.60
16347;DHT22;8283;48.504;13.734;2023-08-12T15:27:52;38.40;44.80
16347;DHT22;8283;48.504;13.734;2023-08-12T15:30:56;38.10;44.80
16347;DHT22;8283;48.504;13.734;2023-08-12T15:33:46;37.80;45.00
16347;DHT22;8283;48.504;13.734;2023-08-12T15:36:52;37.60;45.20
16347;DHT22;8283;48.504;13.734;2023-08-12T15:40:22;37.40;45.30
16347;DHT22;8283;48.504;13.734;2023-08-12T15:43:24;37.10;45.40
16347;DHT22;8283;48.504;13.734;2023-08-12T15:46:28;36.90;45.50
16347;DHT22;8283;48.504;13.734;2023-08-12T15:49:58;36.70;45.60
16347;DHT22;8283;48.504;13.734;2023-08-12T15:53:08;36.60;46.10
16347;DHT22;8283;48.504;13.734;2023-08-12T15:56:13;36.40;45.90
16347;DHT22;8283;48.504;13.734;2023-08-12T15:59:17;36.20;45.90
16347;DHT22;8283;48.504;13.734;2023-08-12T16:02:22;36.00;46.30
16347;DHT22;8283;48.504;13.734;2023-08-12T16:05:27;35.90;46.20
16347;DHT22;8283;48.504;13.734;2023-08-12T16:08:27;35.70;46.10
16347;DHT22;8283;48.504;13.734;2023-08-12T16:11:31;35.60;46.30
16347;DHT22;8283;48.504;13.734;2023-08-12T16:14:34;35.40;46.20
16347;DHT22;8283;48.504;13.734;2023-08-12T16:17:35;35.30;46.60
16347;DHT22;8283;48.504;13.734;2023-08-12T16:20:35;35.20;46.60
16347;DHT22;8283;48.504;13.734;2023-08-12T16:23:39;35.10;46.60
16347;DHT22;8283;48.504;13.734;2023-08-12T16:26:44;34.90;46.40
16347;DHT22;8283;48.504;13.734;2023-08-12T16:29:29;34.70;46.20
16347;DHT22;8283;48.504;13.734;2023-08-12T16:32:13;34.50;46.40
16347;DHT22;8283;48.504;13.734;2023-08-12T16:34:57;34.20;46.50
16347;DHT22;8283;48.504;13.734;2023-08-12T16:37:41;34.00;46.60
16347;DHT22;8283;48.504;13.734;2023-08-12T16:40:51;33.80;46.60
16347;DHT22;8283;48.504;13.734;2023-08-12T16:43:35;33.50;46.70
16347;DHT22;8283;48.504;13.734;2023-08-12T16:46:20;33.30;46.80
16347;DHT22;8283;48.504;13.734;2023-08-12T16:49:06;33.10;47.20
16347;DHT22;8283;48.504;13.734;2023-08-12T16:51:51;32.90;47.30
16347;DHT22;8283;48.504;13.734;2023-08-12T16:54:36;32.70;48.00
16347;DHT22;8283;48.504;13.734;2023-08-12T16:57:20;32.50;47.60
16347;DHT22;8283;48.504;13.734;2023-08-12T17:00:05;32.40;47.90
16347;DHT22;8283;48.504;13.734;2023-08-12T17:02:50;32.20;48.10
16347;DHT22;8283;48.504;13.734;2023-08-12T17:05:35;32.00;48.40
16347;DHT22;8283;48.504;13.734;2023-08-12T17:08:20;31.90;48.70
16347;DHT22;8283;48.504;13.734;2023-08-12T17:11:07;31.80;49.00
16347;DHT22;8283;48.504;13.734;2023-08-12T17:13:51;31.70;49.60
16347;DHT22;8283;48.504;13.734;2023-08-12T17:16:36;31.60;49.50
16347;DHT22;8283;48.504;13.734;2023-08-12T17:19:22;31.60;50.00
16347;DHT22;8283;48.504;13.734;2023-08-12T17:22:32;31.50;50.20
16347;DHT22;8283;48.504;13.734;2023-08-12T17:25:16;31.40;50.20
16347;DHT22;8283;48.504;13.734;2023-08-12T17:28:01;31.30;50.30
16347;DHT22;8283;48.504;13.734;2023-08-12T17:30:45;31.20;50.60
16347;DHT22;8283;48.504;13.734;2023-08-12T17:33:30;31.10;50.80
16347;DHT22;8283;48.504;13.734;2023-08-12T17:36:40;31.00;51.00
16347;DHT22;8283;48.504;13.734;2023-08-12T17:39:25;30.80;50.90
16347;DHT22;8283;48.504;13.734;2023-08-12T17:42:09;30.70;51.20
16347;DHT22;8283;48.504;13.734;2023-08-12T17:44:53;30.50;51.30
16347;DHT22;8283;48.504;13.734;2023-08-12T17:47:38;30.40;51.60
16347;DHT22;8283;48.504;13.734;2023-08-12T17:50:23;30.20;51.80
16347;DHT22;8283;48.504;13.734;2023-08-12T17:53:07;30.00;51.90
16347;DHT22;8283;48.504;13.734;2023-08-12T17:55:53;29.90;52.10
16347;DHT22;8283;48.504;13.734;2023-08-12T17:58:38;29.80;52.20
16347;DHT22;8283;48.504;13.734;2023-08-12T18:01:22;29.60;52.30
16347;DHT22;8283;48.504;13.734;2023-08-12T18:04:07;29.50;52.70
16347;DHT22;8283;48.504;13.734;2023-08-12T18:06:52;29.40;52.70